sensor_id;sensor_type;location;lat;lon;timestamp;pressure;altitude;pressure_sealevel;temperature;humidity
83782;BME280;73783;49.924;15.466;2023-11-21T00:01:01;98454.16;;;8.52;86.27
83782;BME280;73783;49.924;15.466;2023-11-21T00:03:37;98448.97;;;8.53;86.63
83782;BME280;73783;49.924;15.466;2023-11-21T00:06:03;98457.38;;;8.57;86.78
83782;BME280;73783;49.924;15.466;2023-11-21T00:08:29;98447.22;;;8.54;86.75
83782;BME280;73783;49.924;15.466;2023-11-21T00:10:55;98457.03;;;8.64;86.32
83782;BME280;73783;49.924;15.466;2023-11-21T00:13:20;98448.97;;;8.53;86.66
83782;BME280;73783;49.924;15.466;2023-11-21T00:15:46;98458.34;;;8.54;87.22
83782;BME280;73783;49.924;15.466;2023-11-21T00:18:12;98452.16;;;8.58;86.72
83782;BME280;73783;49.924;15.466;2023-11-21T00:20:38;98448.59;;;8.61;86.32
83782;BME280;73783;49.924;15.466;2023-11-21T00:23:03;98447.06;;;8.57;86.78
83782;BME280;73783;49.924;15.466;2023-11-21T00:25:29;98443.03;;;8.51;86.91
83782;BME280;73783;49.924;15.466;2023-11-21T00:27:56;98452.69;;;8.46;87.04
83782;BME280;73783;49.924;15.466;2023-11-21T00:30:22;98467.22;;;8.47;87.12
83782;BME280;73783;49.924;15.466;2023-11-21T00:32:48;98464.66;;;8.47;87.24
83782;BME280;73783;49.924;15.466;2023-11-21T00:35:13;98458.19;;;8.39;87.78
83782;BME280;73783;49.924;15.466;2023-11-21T00:37:39;98471.25;;;8.34;88.42
83782;BME280;73783;49.924;15.466;2023-11-21T00:40:05;98462.88;;;8.29;88.46
83782;BME280;73783;49.924;15.466;2023-11-21T00:42:31;98467.66;;;8.18;89.19
83782;BME280;73783;49.924;15.466;2023-11-21T00:44:59;98463.25;;;8.01;88.93
83782;BME280;73783;49.924;15.466;2023-11-21T00:47:25;98457.66;;;7.92;89.73
83782;BME280;73783;49.924;15.466;2023-11-21T00:49:51;98458.84;;;7.84;89.81
83782;BME280;73783;49.924;15.466;2023-11-21T00:52:16;98460.63;;;7.82;90.05
83782;BME280;73783;49.924;15.466;2023-11-21T00:54:42;98461.41;;;7.84;89.83
83782;BME280;73783;49.924;15.466;2023-11-21T00:57:08;98443.03;;;7.73;89.88
83782;BME280;73783;49.924;15.466;2023-11-21T00:59:34;98439.84;;;7.68;90.12
83782;BME280;73783;49.924;15.466;2023-11-21T01:02:00;98457.94;;;7.65;90.39
83782;BME280;73783;49.924;15.466;2023-11-21T01:04:27;98463.09;;;7.65;90.18
83782;BME280;73783;49.924;15.466;2023-11-21T01:06:53;98460.66;;;7.62;90.76
83782;BME280;73783;49.924;15.466;2023-11-21T01:09:18;98465.44;;;7.70;90.63
83782;BME280;73783;49.924;15.466;2023-11-21T01:11:44;98455.13;;;7.71;90.45
83782;BME280;73783;49.924;15.466;2023-11-21T01:14:09;98459.69;;;7.85;89.72
83782;BME280;73783;49.924;15.466;2023-11-21T01:16:36;98456.00;;;7.91;89.52
83782;BME280;73783;49.924;15.466;2023-11-21T01:19:01;98457.34;;;7.99;89.24
83782;BME280;73783;49.924;15.466;2023-11-21T01:21:27;98461.25;;;8.08;89.34
83782;BME280;73783;49.924;15.466;2023-11-21T01:23:53;98461.88;;;8.13;88.90
83782;BME280;73783;49.924;15.466;2023-11-21T01:26:20;98461.75;;;8.16;88.39
83782;BME280;73783;49.924;15.466;2023-11-21T01:28:46;98470.06;;;8.21;88.50
83782;BME280;73783;49.924;15.466;2023-11-21T01:31:15;98471.13;;;8.17;88.66
83782;BME280;73783;49.924;15.466;2023-11-21T01:33:40;98459.25;;;8.14;88.74
83782;BME280;73783;49.924;15.466;2023-11-21T01:36:07;98456.34;;;8.22;87.52
83782;BME280;73783;49.924;15.466;2023-11-21T01:38:32;98472.22;;;8.32;88.39
83782;BME280;73783;49.924;15.466;2023-11-21T01:40:58;98464.81;;;8.24;87.95
83782;BME280;73783;49.924;15.466;2023-11-21T01:43:26;98469.97;;;8.24;88.18
83782;BME280;73783;49.924;15.466;2023-11-21T01:45:54;98474.91;;;8.28;87.88
83782;BME280;73783;49.924;15.466;2023-11-21T01:48:22;98463.78;;;8.28;87.93
83782;BME280;73783;49.924;15.466;2023-11-21T01:50:48;98466.34;;;8.28;87.70
83782;BME280;73783;49.924;15.466;2023-11-21T01:53:14;98465.47;;;8.29;87.93
83782;BME280;73783;49.924;15.466;2023-11-21T01:55:41;98459.94;;;8.38;87.84
83782;BME280;73783;49.924;15.466;2023-11-21T01:58:08;98451.59;;;8.33;87.08
83782;BME280;73783;49.924;15.466;2023-11-21T02:00:34;98460.72;;;8.40;87.73
83782;BME280;73783;49.924;15.466;2023-11-21T02:03:00;98453.91;;;8.39;87.26
83782;BME280;73783;49.924;15.466;2023-11-21T02:05:26;98463.75;;;8.48;86.91
83782;BME280;73783;49.924;15.466;2023-11-21T02:07:51;98461.19;;;8.48;87.24
83782;BME280;73783;49.924;15.466;2023-11-21T02:10:18;98461.13;;;8.50;87.09
83782;BME280;73783;49.924;15.466;2023-11-21T02:12:51;98469.59;;;8.52;87.10
83782;BME280;73783;49.924;15.466;2023-11-21T02:15:17;98470.28;;;8.55;86.80
83782;BME280;73783;49.924;15.466;2023-11-21T02:17:47;98469.47;;;8.55;86.91
83782;BME280;73783;49.924;15.466;2023-11-21T02:20:17;98472.09;;;8.53;87.06
83782;BME280;73783;49.924;15.466;2023-11-21T02:22:53;98482.13;;;8.59;86.56
83782;BME280;73783;49.924;15.466;2023-11-21T02:25:25;98479.56;;;8.59;86.57
83782;BME280;73783;49.924;15.466;2023-11-21T02:27:56;98466.13;;;8.53;86.02
83782;BME280;73783;49.924;15.466;2023-11-21T02:30:23;98464.38;;;8.53;86.13
83782;BME280;73783;49.924;15.466;2023-11-21T02:32:50;98473.22;;;8.48;87.10
83782;BME280;73783;49.924;15.466;2023-11-21T02:35:19;98471.81;;;8.41;86.83
83782;BME280;73783;49.924;15.466;2023-11-21T02:37:49;98473.56;;;8.40;87.43
83782;BME280;73783;49.924;15.466;2023-11-21T02:40:15;98465.00;;;8.40;87.63
83782;BME280;73783;49.924;15.466;2023-11-21T02:42:52;98477.66;;;8.44;87.85
83782;BME280;73783;49.924;15.466;2023-11-21T02:45:20;98473.22;;;8.48;87.90
83782;BME280;73783;49.924;15.466;2023-11-21T02:47:46;98462.34;;;8.41;88.06
83782;BME280;73783;49.924;15.466;2023-11-21T02:50:13;98464.94;;;8.41;88.16
83782;BME280;73783;49.924;15.466;2023-11-21T02:52:38;98472.72;;;8.40;88.58
83782;BME280;73783;49.924;15.466;2023-11-21T02:55:06;98470.28;;;8.37;88.80
83782;BME280;73783;49.924;15.466;2023-11-21T02:57:32;98471.88;;;8.39;88.53
83782;BME280;73783;49.924;15.466;2023-11-21T02:59:59;98464.44;;;8.33;88.17
83782;BME280;73783;49.924;15.466;2023-11-21T03:02:28;98472.00;;;8.36;88.59
83782;BME280;73783;49.924;15.466;2023-11-21T03:04:54;98482.09;;;8.41;88.62
83782;BME280;73783;49.924;15.466;2023-11-21T03:07:19;98471.00;;;8.40;88.44
83782;BME280;73783;49.924;15.466;2023-11-21T03:09:46;98472.78;;;8.38;88.27
83782;BME280;73783;49.924;15.466;2023-11-21T03:12:11;98472.63;;;8.41;87.60
83782;BME280;73783;49.924;15.466;2023-11-21T03:14:40;98475.31;;;8.40;87.58
83782;BME280;73783;49.924;15.466;2023-11-21T03:17:05;98463.34;;;8.39;87.56
83782;BME280;73783;49.924;15.466;2023-11-21T03:19:32;98468.47;;;8.39;87.97
83782;BME280;73783;49.924;15.466;2023-11-21T03:21:57;98467.66;;;8.38;87.70
83782;BME280;73783;49.924;15.466;2023-11-21T03:24:23;98469.31;;;8.39;87.56
83782;BME280;73783;49.924;15.466;2023-11-21T03:26:48;98476.13;;;8.40;87.76
83782;BME280;73783;49.924;15.466;2023-11-21T03:29:14;98467.66;;;8.38;87.88
83782;BME280;73783;49.924;15.466;2023-11-21T03:31:40;98472.78;;;8.38;87.02
83782;BME280;73783;49.924;15.466;2023-11-21T03:34:06;98474.53;;;8.38;87.38
83782;BME280;73783;49.924;15.466;2023-11-21T03:36:32;98472.78;;;8.38;87.89
83782;BME280;73783;49.924;15.466;2023-11-21T03:38:57;98479.41;;;8.44;87.86
83782;BME280;73783;49.924;15.466;2023-11-21T03:41:23;98487.06;;;8.45;87.26
83782;BME280;73783;49.924;15.466;2023-11-21T03:43:49;98477.78;;;8.41;87.25
83782;BME280;73783;49.924;15.466;2023-11-21T03:46:14;98476.13;;;8.40;86.91
83782;BME280;73783;49.924;15.466;2023-11-21T03:48:40;98481.19;;;8.42;87.04
83782;BME280;73783;49.924;15.466;2023-11-21T03:51:07;98476.41;;;8.34;87.04
83782;BME280;73783;49.924;15.466;2023-11-21T03:53:33;98489.75;;;8.42;87.05
83782;BME280;73783;49.924;15.466;2023-11-21T03:55:58;98493.94;;;8.45;87.11
83782;BME280;73783;49.924;15.466;2023-11-21T03:58:24;98484.94;;;8.35;86.89
83782;BME280;73783;49.924;15.466;2023-11-21T04:00:49;98490.72;;;8.40;87.12
83782;BME280;73783;49.924;15.466;2023-11-21T04:03:15;98497.50;;;8.41;87.33
83782;BME280;73783;49.924;15.466;2023-11-21T04:05:41;98489.31;;;8.33;87.11
83782;BME280;73783;49.924;15.466;2023-11-21T04:08:07;98491.03;;;8.32;87.49
83782;BME280;73783;49.924;15.466;2023-11-21T04:10:32;98489.47;;;8.30;88.03
83782;BME280;73783;49.924;15.466;2023-11-21T04:12:58;98489.69;;;8.23;88.29
83782;BME280;73783;49.924;15.466;2023-11-21T04:15:24;98501.50;;;8.27;88.25
83782;BME280;73783;49.924;15.466;2023-11-21T04:17:49;98496.63;;;8.21;88.43
83782;BME280;73783;49.924;15.466;2023-11-21T04:20:15;98491.63;;;8.18;88.73
83782;BME280;73783;49.924;15.466;2023-11-21T04:22:42;98496.50;;;8.24;88.00
83782;BME280;73783;49.924;15.466;2023-11-21T04:25:14;98492.31;;;8.22;88.79
83782;BME280;73783;49.924;15.466;2023-11-21T04:27:41;98497.25;;;8.26;88.34
83782;BME280;73783;49.924;15.466;2023-11-21T04:30:09;98507.25;;;8.34;87.89
83782;BME280;73783;49.924;15.466;2023-11-21T04:32:35;98496.28;;;8.29;88.00
83782;BME280;73783;49.924;15.466;2023-11-21T04:35:01;98499.75;;;8.28;88.30
83782;BME280;73783;49.924;15.466;2023-11-21T04:37:27;98489.84;;;8.20;88.36
83782;BME280;73783;49.924;15.466;2023-11-21T04:39:52;98475.38;;;8.18;88.26
83782;BME280;73783;49.924;15.466;2023-11-21T04:42:18;98491.63;;;8.18;88.66
83782;BME280;73783;49.924;15.466;2023-11-21T04:44:44;98510.19;;;8.25;88.35
83782;BME280;73783;49.924;15.466;2023-11-21T04:47:10;98506.06;;;8.21;88.55
83782;BME280;73783;49.924;15.466;2023-11-21T04:49:36;98506.97;;;8.20;88.09
83782;BME280;73783;49.924;15.466;2023-11-21T04:52:01;98496.63;;;8.21;88.77
83782;BME280;73783;49.924;15.466;2023-11-21T04:54:30;98505.94;;;8.24;88.49
83782;BME280;73783;49.924;15.466;2023-11-21T04:56:56;98500.91;;;8.21;87.97
83782;BME280;73783;49.924;15.466;2023-11-21T04:59:22;98496.06;;;8.15;88.42
83782;BME280;73783;49.924;15.466;2023-11-21T05:01:50;98503.69;;;8.16;88.61
83782;BME280;73783;49.924;15.466;2023-11-21T05:04:16;98507.88;;;8.19;88.34
83782;BME280;73783;49.924;15.466;2023-11-21T05:06:42;98495.78;;;8.21;88.06
83782;BME280;73783;49.924;15.466;2023-11-21T05:09:07;98498.03;;;8.28;87.82
83782;BME280;73783;49.924;15.466;2023-11-21T05:11:37;98510.19;;;8.45;87.35
83782;BME280;73783;49.924;15.466;2023-11-21T05:14:03;98503.78;;;8.35;87.81
83782;BME280;73783;49.924;15.466;2023-11-21T05:16:30;98511.19;;;8.21;89.10
83782;BME280;73783;49.924;15.466;2023-11-21T05:18:56;98505.50;;;8.14;89.53
83782;BME280;73783;49.924;15.466;2023-11-21T05:21:26;98504.53;;;8.17;89.67
83782;BME280;73783;49.924;15.466;2023-11-21T05:23:52;98505.56;;;8.13;89.73
83782;BME280;73783;49.924;15.466;2023-11-21T05:26:18;98511.53;;;8.13;90.09
83782;BME280;73783;49.924;15.466;2023-11-21T05:28:47;98515.09;;;8.11;89.98
83782;BME280;73783;49.924;15.466;2023-11-21T05:31:13;98510.75;;;8.11;90.49
83782;BME280;73783;49.924;15.466;2023-11-21T05:33:38;98516.94;;;8.07;90.35
83782;BME280;73783;49.924;15.466;2023-11-21T05:36:04;98531.59;;;8.05;89.71
83782;BME280;73783;49.924;15.466;2023-11-21T05:38:33;98524.09;;;8.01;90.24
83782;BME280;73783;49.924;15.466;2023-11-21T05:40:59;98513.66;;;8.04;89.82
83782;BME280;73783;49.924;15.466;2023-11-21T05:43:24;98518.66;;;8.07;89.41
83782;BME280;73783;49.924;15.466;2023-11-21T05:45:50;98521.13;;;8.10;90.14
83782;BME280;73783;49.924;15.466;2023-11-21T05:48:16;98529.47;;;8.15;89.82
83782;BME280;73783;49.924;15.466;2023-11-21T05:50:41;98527.66;;;8.17;90.08
83782;BME280;73783;49.924;15.466;2023-11-21T05:53:07;98533.44;;;8.22;90.16
83782;BME280;73783;49.924;15.466;2023-11-21T05:55:35;98540.00;;;8.29;89.97
83782;BME280;73783;49.924;15.466;2023-11-21T05:58:01;98537.47;;;8.27;90.04
83782;BME280;73783;49.924;15.466;2023-11-21T06:00:26;98524.78;;;8.24;89.65
83782;BME280;73783;49.924;15.466;2023-11-21T06:02:53;98531.66;;;8.24;89.63
83782;BME280;73783;49.924;15.466;2023-11-21T06:05:21;98539.16;;;8.28;89.99
83782;BME280;73783;49.924;15.466;2023-11-21T06:07:49;98541.78;;;8.27;90.19
83782;BME280;73783;49.924;15.466;2023-11-21T06:10:15;98540.25;;;8.23;90.86
83782;BME280;73783;49.924;15.466;2023-11-21T06:12:43;98542.19;;;8.18;91.17
83782;BME280;73783;49.924;15.466;2023-11-21T06:15:10;98545.63;;;8.17;91.08
83782;BME280;73783;49.924;15.466;2023-11-21T06:17:39;98544.81;;;8.16;90.76
83782;BME280;73783;49.924;15.466;2023-11-21T06:20:06;98551.38;;;8.23;90.52
83782;BME280;73783;49.924;15.466;2023-11-21T06:22:42;98550.66;;;8.20;90.59
83782;BME280;73783;49.924;15.466;2023-11-21T06:25:08;98546.47;;;8.17;91.98
83782;BME280;73783;49.924;15.466;2023-11-21T06:27:37;98549.00;;;8.19;91.55
83782;BME280;73783;49.924;15.466;2023-11-21T06:30:04;98563.53;;;8.20;90.86
83782;BME280;73783;49.924;15.466;2023-11-21T06:32:30;98557.84;;;8.12;91.42
83782;BME280;73783;49.924;15.466;2023-11-21T06:34:56;98570.59;;;8.15;90.83
83782;BME280;73783;49.924;15.466;2023-11-21T06:37:26;98559.03;;;8.05;91.91
83782;BME280;73783;49.924;15.466;2023-11-21T06:39:52;98564.06;;;8.06;91.81
83782;BME280;73783;49.924;15.466;2023-11-21T06:42:18;98573.34;;;8.10;91.71
83782;BME280;73783;49.924;15.466;2023-11-21T06:44:48;98563.00;;;8.12;92.03
83782;BME280;73783;49.924;15.466;2023-11-21T06:47:14;98567.56;;;8.25;90.79
83782;BME280;73783;49.924;15.466;2023-11-21T06:49:42;98566.56;;;8.30;90.63
83782;BME280;73783;49.924;15.466;2023-11-21T06:52:08;98569.06;;;8.31;90.53
83782;BME280;73783;49.924;15.466;2023-11-21T06:54:34;98571.56;;;8.33;90.45
83782;BME280;73783;49.924;15.466;2023-11-21T06:57:00;98567.13;;;8.36;90.23
83782;BME280;73783;49.924;15.466;2023-11-21T06:59:28;98585.50;;;8.47;90.02
83782;BME280;73783;49.924;15.466;2023-11-21T07:01:54;98576.94;;;8.47;89.71
83782;BME280;73783;49.924;15.466;2023-11-21T07:04:20;98574.53;;;8.44;89.52
83782;BME280;73783;49.924;15.466;2023-11-21T07:06:45;98591.22;;;8.54;89.73
83782;BME280;73783;49.924;15.466;2023-11-21T07:09:11;98581.88;;;8.51;89.07
83782;BME280;73783;49.924;15.466;2023-11-21T07:11:38;98593.59;;;8.58;89.32
83782;BME280;73783;49.924;15.466;2023-11-21T07:14:04;98579.06;;;8.57;89.34
83782;BME280;73783;49.924;15.466;2023-11-21T07:16:36;98597.56;;;8.65;89.23
83782;BME280;73783;49.924;15.466;2023-11-21T07:19:05;98587.34;;;8.64;88.78
83782;BME280;73783;49.924;15.466;2023-11-21T07:21:36;98589.72;;;8.68;88.74
83782;BME280;73783;49.924;15.466;2023-11-21T07:24:03;98598.97;;;8.73;88.71
83782;BME280;73783;49.924;15.466;2023-11-21T07:26:29;98598.13;;;8.72;88.52
83782;BME280;73783;49.924;15.466;2023-11-21T07:28:56;98589.72;;;8.68;88.93
83782;BME280;73783;49.924;15.466;2023-11-21T07:31:22;98598.13;;;8.72;88.82
83782;BME280;73783;49.924;15.466;2023-11-21T07:33:48;98589.72;;;8.68;88.93
83782;BME280;73783;49.924;15.466;2023-11-21T07:36:15;98601.41;;;8.76;89.22
83782;BME280;73783;49.924;15.466;2023-11-21T07:38:42;98591.09;;;8.76;89.07
83782;BME280;73783;49.924;15.466;2023-11-21T07:41:08;98602.03;;;8.81;89.07
83782;BME280;73783;49.924;15.466;2023-11-21T07:43:35;98601.97;;;8.82;88.60
83782;BME280;73783;49.924;15.466;2023-11-21T07:46:01;98612.69;;;8.92;88.63
83782;BME280;73783;49.924;15.466;2023-11-21T07:48:32;98607.41;;;8.95;87.97
83782;BME280;73783;49.924;15.466;2023-11-21T07:50:58;98615.91;;;8.97;87.77
83782;BME280;73783;49.924;15.466;2023-11-21T07:53:27;98618.41;;;8.98;87.40
83782;BME280;73783;49.924;15.466;2023-11-21T07:56:05;98618.41;;;8.98;87.28
83782;BME280;73783;49.924;15.466;2023-11-21T07:58:35;98616.84;;;8.94;87.99
83782;BME280;73783;49.924;15.466;2023-11-21T08:01:02;98609.97;;;8.95;87.24
83782;BME280;73783;49.924;15.466;2023-11-21T08:03:27;98609.22;;;8.93;86.83
83782;BME280;73783;49.924;15.466;2023-11-21T08:05:59;98627.03;;;8.97;87.51
83782;BME280;73783;49.924;15.466;2023-11-21T08:08:25;98617.56;;;8.98;86.52
83782;BME280;73783;49.924;15.466;2023-11-21T08:10:51;98618.31;;;9.00;86.77
83782;BME280;73783;49.924;15.466;2023-11-21T08:13:26;98621.53;;;9.05;87.33
83782;BME280;73783;49.924;15.466;2023-11-21T08:15:56;98622.38;;;9.05;86.64
83782;BME280;73783;49.924;15.466;2023-11-21T08:18:22;98623.19;;;9.06;86.77
83782;BME280;73783;49.924;15.466;2023-11-21T08:20:48;98629.53;;;9.18;85.89
83782;BME280;73783;49.924;15.466;2023-11-21T08:23:17;98624.19;;;9.22;86.71
83782;BME280;73783;49.924;15.466;2023-11-21T08:25:46;98632.38;;;9.30;85.99
83782;BME280;73783;49.924;15.466;2023-11-21T08:28:12;98636.16;;;9.42;84.83
83782;BME280;73783;49.924;15.466;2023-11-21T08:30:40;98622.28;;;9.44;84.96
83782;BME280;73783;49.924;15.466;2023-11-21T08:33:07;98632.50;;;9.65;84.84
83782;BME280;73783;49.924;15.466;2023-11-21T08:35:34;98614.81;;;9.76;84.64
83782;BME280;73783;49.924;15.466;2023-11-21T08:38:00;98626.50;;;10.00;84.30
83782;BME280;73783;49.924;15.466;2023-11-21T08:40:26;98628.28;;;10.17;83.53
83782;BME280;73783;49.924;15.466;2023-11-21T08:42:52;98621.75;;;10.27;81.83
83782;BME280;73783;49.924;15.466;2023-11-21T08:45:19;98620.31;;;10.38;81.75
83782;BME280;73783;49.924;15.466;2023-11-21T08:47:45;98613.19;;;10.43;80.41
83782;BME280;73783;49.924;15.466;2023-11-21T08:50:11;98614.63;;;10.49;80.41
83782;BME280;73783;49.924;15.466;2023-11-21T08:52:40;98625.25;;;10.60;80.42
83782;BME280;73783;49.924;15.466;2023-11-21T08:55:08;98619.69;;;10.68;79.38
83782;BME280;73783;49.924;15.466;2023-11-21T08:57:37;98627.47;;;10.83;79.11
83782;BME280;73783;49.924;15.466;2023-11-21T09:00:09;98621.00;;;10.92;78.41
83782;BME280;73783;49.924;15.466;2023-11-21T09:02:39;98626.94;;;11.10;77.67
83782;BME280;73783;49.924;15.466;2023-11-21T09:05:10;98621.28;;;11.03;76.55
83782;BME280;73783;49.924;15.466;2023-11-21T09:07:36;98626.09;;;11.09;77.68
83782;BME280;73783;49.924;15.466;2023-11-21T09:10:06;98624.34;;;10.94;77.75
83782;BME280;73783;49.924;15.466;2023-11-21T09:12:35;98629.69;;;11.07;75.92
83782;BME280;73783;49.924;15.466;2023-11-21T09:15:02;98621.91;;;10.91;78.70
83782;BME280;73783;49.924;15.466;2023-11-21T09:17:29;98626.31;;;10.89;78.99
83782;BME280;73783;49.924;15.466;2023-11-21T09:19:55;98632.16;;;10.93;77.66
83782;BME280;73783;49.924;15.466;2023-11-21T09:22:22;98633.31;;;10.87;78.41
83782;BME280;73783;49.924;15.466;2023-11-21T09:24:51;98634.38;;;10.83;78.05
83782;BME280;73783;49.924;15.466;2023-11-21T09:27:16;98638.41;;;10.71;77.36
83782;BME280;73783;49.924;15.466;2023-11-21T09:29:43;98643.50;;;10.73;77.88
83782;BME280;73783;49.924;15.466;2023-11-21T09:32:09;98639.31;;;10.70;77.53
83782;BME280;73783;49.924;15.466;2023-11-21T09:34:39;98643.69;;;10.70;77.83
83782;BME280;73783;49.924;15.466;2023-11-21T09:37:05;98643.38;;;10.59;76.69
83782;BME280;73783;49.924;15.466;2023-11-21T09:39:35;98645.50;;;10.51;77.74
83782;BME280;73783;49.924;15.466;2023-11-21T09:47:39;98655.28;;;10.61;77.38
83782;BME280;73783;49.924;15.466;2023-11-21T09:50:05;98667.19;;;10.64;77.70
83782;BME280;73783;49.924;15.466;2023-11-21T09:52:40;98650.81;;;10.65;77.79
83782;BME280;73783;49.924;15.466;2023-11-21T09:55:13;98655.75;;;10.69;77.61
83782;BME280;73783;49.924;15.466;2023-11-21T09:57:41;98658.31;;;10.69;76.22
83782;BME280;73783;49.924;15.466;2023-11-21T10:00:08;98654.59;;;10.75;76.69
83782;BME280;73783;49.924;15.466;2023-11-21T10:02:38;98649.66;;;10.70;76.14
83782;BME280;73783;49.924;15.466;2023-11-21T10:05:06;98652.16;;;10.72;76.95
83782;BME280;73783;49.924;15.466;2023-11-21T10:07:33;98654.31;;;10.64;77.10
83782;BME280;73783;49.924;15.466;2023-11-21T10:10:00;98665.00;;;10.73;77.72
83782;BME280;73783;49.924;15.466;2023-11-21T10:12:28;98662.41;;;10.73;78.17
83782;BME280;73783;49.924;15.466;2023-11-21T10:14:54;98667.69;;;10.88;76.69
83782;BME280;73783;49.924;15.466;2023-11-21T10:17:24;98673.09;;;10.83;77.89
83782;BME280;73783;49.924;15.466;2023-11-21T10:19:55;98665.72;;;10.93;78.09
83782;BME280;73783;49.924;15.466;2023-11-21T10:22:23;98657.56;;;11.00;76.92
83782;BME280;73783;49.924;15.466;2023-11-21T10:24:49;98652.84;;;11.08;76.14
83782;BME280;73783;49.924;15.466;2023-11-21T10:27:15;98656.41;;;11.06;76.15
83782;BME280;73783;49.924;15.466;2023-11-21T10:29:41;98659.34;;;11.15;75.38
83782;BME280;73783;49.924;15.466;2023-11-21T10:32:07;98657.91;;;11.10;77.36
83782;BME280;73783;49.924;15.466;2023-11-21T10:34:33;98657.34;;;11.20;76.77
83782;BME280;73783;49.924;15.466;2023-11-21T10:37:10;98656.03;;;11.29;76.49
83782;BME280;73783;49.924;15.466;2023-11-21T10:39:36;98649.44;;;11.39;76.17
83782;BME280;73783;49.924;15.466;2023-11-21T10:42:02;98647.63;;;11.41;75.21
83782;BME280;73783;49.924;15.466;2023-11-21T10:44:28;98652.38;;;11.49;75.30
83782;BME280;73783;49.924;15.466;2023-11-21T10:46:54;98651.78;;;11.44;74.46
83782;BME280;73783;49.924;15.466;2023-11-21T10:49:24;98652.53;;;11.30;74.05
83782;BME280;73783;49.924;15.466;2023-11-21T10:51:51;98662.13;;;11.28;74.38
83782;BME280;73783;49.924;15.466;2023-11-21T10:54:19;98663.31;;;11.05;76.17
83782;BME280;73783;49.924;15.466;2023-11-21T10:56:47;98653.44;;;11.13;75.60
83782;BME280;73783;49.924;15.466;2023-11-21T10:59:16;98664.81;;;11.09;75.78
83782;BME280;73783;49.924;15.466;2023-11-21T11:01:44;98646.50;;;10.98;75.78
83782;BME280;73783;49.924;15.466;2023-11-21T11:04:11;98663.06;;;10.94;74.76
83782;BME280;73783;49.924;15.466;2023-11-21T11:06:43;98665.03;;;10.89;75.56
83782;BME280;73783;49.924;15.466;2023-11-21T11:09:13;98652.63;;;10.96;74.07
83782;BME280;73783;49.924;15.466;2023-11-21T11:11:42;98646.53;;;11.14;74.84
83782;BME280;73783;49.924;15.466;2023-11-21T11:14:12;98652.78;;;11.25;75.23
83782;BME280;73783;49.924;15.466;2023-11-21T11:16:38;98646.13;;;11.37;73.48
83782;BME280;73783;49.924;15.466;2023-11-21T11:19:10;98647.53;;;11.27;72.63
83782;BME280;73783;49.924;15.466;2023-11-21T11:21:49;98637.88;;;11.30;73.43
83782;BME280;73783;49.924;15.466;2023-11-21T11:27:24;98639.88;;;11.25;72.79
83782;BME280;73783;49.924;15.466;2023-11-21T11:35:29;98629.22;;;11.32;74.19
83782;BME280;73783;49.924;15.466;2023-11-21T11:37:58;98624.97;;;11.30;73.02
83782;BME280;73783;49.924;15.466;2023-11-21T11:40:38;98617.78;;;11.67;71.35
83782;BME280;73783;49.924;15.466;2023-11-21T11:43:05;98629.47;;;11.90;71.67
83782;BME280;73783;49.924;15.466;2023-11-21T11:45:33;98638.28;;;12.01;71.50
83782;BME280;73783;49.924;15.466;2023-11-21T11:48:01;98641.63;;;11.88;71.43
83782;BME280;73783;49.924;15.466;2023-11-21T11:50:29;98642.91;;;11.81;72.52
83782;BME280;73783;49.924;15.466;2023-11-21T11:52:55;98645.00;;;11.74;72.35
83782;BME280;73783;49.924;15.466;2023-11-21T11:55:24;98652.06;;;11.70;72.37
83782;BME280;73783;49.924;15.466;2023-11-21T11:57:52;98632.13;;;11.57;72.73
83782;BME280;73783;49.924;15.466;2023-11-21T12:00:18;98645.47;;;11.49;72.79
83782;BME280;73783;49.924;15.466;2023-11-21T12:02:52;98642.31;;;11.28;73.76
83782;BME280;73783;49.924;15.466;2023-11-21T12:05:20;98634.91;;;11.05;73.12
83782;BME280;73783;49.924;15.466;2023-11-21T12:07:48;98644.22;;;10.92;73.99
83782;BME280;73783;49.924;15.466;2023-11-21T12:10:22;98652.69;;;10.78;74.21
83782;BME280;73783;49.924;15.466;2023-11-21T12:12:51;98657.06;;;10.76;75.20
83782;BME280;73783;49.924;15.466;2023-11-21T12:15:21;98648.03;;;10.85;74.27
83782;BME280;73783;49.924;15.466;2023-11-21T12:17:48;98653.03;;;10.88;74.42
83782;BME280;73783;49.924;15.466;2023-11-21T12:20:16;98653.00;;;11.05;74.04
83782;BME280;73783;49.924;15.466;2023-11-21T12:22:45;98645.66;;;10.98;74.28
83782;BME280;73783;49.924;15.466;2023-11-21T12:25:15;98632.19;;;11.08;74.23
83782;BME280;73783;49.924;15.466;2023-11-21T12:27:48;98645.47;;;11.34;74.94
83782;BME280;73783;49.924;15.466;2023-11-21T12:30:20;98639.31;;;11.52;73.87
83782;BME280;73783;49.924;15.466;2023-11-21T12:32:54;98631.13;;;11.59;72.37
83782;BME280;73783;49.924;15.466;2023-11-21T12:35:25;98627.13;;;11.69;71.32
83782;BME280;73783;49.924;15.466;2023-11-21T12:37:53;98615.28;;;11.50;71.46
83782;BME280;73783;49.924;15.466;2023-11-21T12:40:20;98634.13;;;11.67;71.44
83782;BME280;73783;49.924;15.466;2023-11-21T12:42:51;98630.13;;;11.62;72.19
83782;BME280;73783;49.924;15.466;2023-11-21T12:45:19;98642.28;;;11.60;71.94
83782;BME280;73783;49.924;15.466;2023-11-21T12:48:05;98637.31;;;11.41;72.13
83782;BME280;73783;49.924;15.466;2023-11-21T12:50:37;98642.44;;;11.25;72.13
83782;BME280;73783;49.924;15.466;2023-11-21T12:53:08;98653.44;;;11.13;73.49
83782;BME280;73783;49.924;15.466;2023-11-21T12:55:36;98644.63;;;11.17;74.21
83782;BME280;73783;49.924;15.466;2023-11-21T12:58:04;98632.09;;;11.10;73.50
83782;BME280;73783;49.924;15.466;2023-11-21T13:03:05;98639.25;;;11.05;73.48
83782;BME280;73783;49.924;15.466;2023-11-21T13:05:36;98643.28;;;11.26;73.67
83782;BME280;73783;49.924;15.466;2023-11-21T13:08:05;98649.38;;;11.41;72.22
83782;BME280;73783;49.924;15.466;2023-11-21T13:10:34;98643.63;;;11.36;70.34
83782;BME280;73783;49.924;15.466;2023-11-21T13:13:07;98648.28;;;11.29;71.62
83782;BME280;73783;49.924;15.466;2023-11-21T13:15:39;98641.19;;;11.17;71.93